Portada
METAR-TAF:

METAR-TAF

Aeroports :

Salamanca, Espanya

latitud: 40-57N, longitud: 005-30W, altitud: 793 m

Observació

L'informe es va fer fa 10 minuts, a les 17:00 UTC
Vent 11 kt del Est/Nord-Est, variant entre Nord/Nord-Est i Est
Temperatura 28°C
Humitat 35%
Pressió 1023 hPa
Visibilitat 10 km o més
sense núvols per sota de 1500 mi sense presència de cumulonimbus.

METAR: LESA 181700Z 07011KT 020V100 CAVOK 28/11 Q1023

Hora: 19:10 (17:10 UTC)

Pronòstic

L'informe es va fer fa 6 hores i 10 minuts, a les 11:00 UTC
Pronòstic vàlid del 18 a les 12 UTC al 19 a les 12 UTC
Vent 8 kt del Nord-Est
Visibilitat 10 km o més
sense núvols per sota de 1500 mi sense presència de cumulonimbus.

TAF: LESA 181100Z 1812/1912 04008KT CAVOK TX29/1815Z TN11/1905Z

Observacions i pronòstics meteorològics de més de 4000 aeroports (METAR i TAF).

Les estacions disponibles són els punts grocs i vermells al mapa.

Posi el ratolí al punt desitjat per veure el nom de l'estació.

Feu clic per veure les observacions i els pronòstics meteorològics.

Per canviar el mapa: feu clic els botons verds amb una creu de color negre per apropar; al botó verd amb un guió per allunyar la imatge; o en les fletxes verdes per a mapes adjacents.


METAR-TAF: